createdAt,value
2023-04-25T00:01:19.737Z,6.53
2023-04-25T00:03:47.318Z,6.43
2023-04-25T00:06:14.933Z,7.27
2023-04-25T00:08:47.338Z,7.10
2023-04-25T00:11:14.604Z,6.60
2023-04-25T00:13:42.714Z,7.03
2023-04-25T00:16:17.739Z,6.07
2023-04-25T00:18:47.189Z,6.37
2023-04-25T00:21:14.496Z,6.10
2023-04-25T00:23:42.287Z,6.47
2023-04-25T00:26:09.588Z,6.87
2023-04-25T00:28:36.826Z,6.77
2023-04-25T00:31:04.655Z,6.57
2023-04-25T00:33:31.926Z,6.10
2023-04-25T00:35:59.381Z,7.37
2023-04-25T00:38:26.624Z,6.53
2023-04-25T00:40:54.868Z,7.50
2023-04-25T00:43:22.516Z,6.93
2023-04-25T00:45:51.766Z,7.57
2023-04-25T00:49:34.556Z,6.93
2023-04-25T00:52:01.971Z,8.07
2023-04-25T00:54:29.497Z,7.83
2023-04-25T01:01:46.526Z,7.20
2023-04-25T01:04:14.792Z,7.13
2023-04-25T01:06:43.252Z,5.47
2023-04-25T01:09:11.560Z,5.47
2023-04-25T01:11:41.050Z,5.33
2023-04-25T01:14:08.397Z,6.60
2023-04-25T01:16:36.163Z,5.50
2023-04-25T01:19:12.267Z,5.83
2023-04-25T01:21:40.100Z,5.50
2023-04-25T01:24:08.242Z,5.70
2023-04-25T01:26:36.779Z,6.33
2023-04-25T01:29:07.163Z,5.93
2023-04-25T01:32:01.390Z,5.73
2023-04-25T01:34:28.763Z,6.17
2023-04-25T01:37:00.675Z,5.43
2023-04-25T01:39:30.506Z,5.63
2023-04-25T01:44:41.340Z,5.57
2023-04-25T01:47:08.725Z,5.80
2023-04-25T01:49:36.099Z,5.83
2023-04-25T01:52:07.221Z,6.03
2023-04-25T01:54:54.166Z,5.90
2023-04-25T01:57:23.315Z,6.60
2023-04-25T01:59:51.306Z,8.50
2023-04-25T02:02:38.104Z,6.97
2023-04-25T02:05:08.068Z,7.20
2023-04-25T02:11:10.501Z,7.30
2023-04-25T02:13:43.993Z,7.00
2023-04-25T02:16:31.702Z,7.80
2023-04-25T02:19:01.051Z,7.37
2023-04-25T02:21:28.395Z,7.23
2023-04-25T02:23:56.343Z,7.80
2023-04-25T02:26:24.664Z,8.40
2023-04-25T02:28:52.652Z,6.83
2023-04-25T02:31:21.035Z,7.47
2023-04-25T02:33:49.413Z,7.37
2023-04-25T02:36:17.063Z,7.30
2023-04-25T02:38:46.200Z,7.57
2023-04-25T02:41:13.510Z,7.87
2023-04-25T02:43:40.847Z,8.47
2023-04-25T02:46:08.861Z,7.83
2023-04-25T02:48:38.335Z,7.67
2023-04-25T02:51:05.914Z,8.03
2023-04-25T02:53:33.403Z,7.90
2023-04-25T02:56:01.194Z,7.63
2023-04-25T02:58:29.042Z,11.43
2023-04-25T03:00:56.704Z,7.50
2023-04-25T03:03:24.174Z,8.23
2023-04-25T03:06:18.111Z,7.67
2023-04-25T03:08:45.479Z,7.77
2023-04-25T03:11:13.057Z,7.20
2023-04-25T03:13:42.759Z,7.93
2023-04-25T03:16:11.954Z,7.93
2023-04-25T03:18:39.799Z,8.03
2023-04-25T03:21:07.831Z,7.97
2023-04-25T03:23:35.277Z,8.80
2023-04-25T03:26:03.045Z,8.77
2023-04-25T03:28:31.433Z,8.30
2023-04-25T03:30:59.376Z,8.70
2023-04-25T03:33:27.294Z,8.43
2023-04-25T03:35:54.697Z,8.30
2023-04-25T03:38:22.177Z,9.63
2023-04-25T03:40:51.908Z,8.53
2023-04-25T03:43:23.581Z,9.30
2023-04-25T03:45:56.706Z,7.93
2023-04-25T03:48:36.104Z,8.80
2023-04-25T03:51:04.286Z,8.20
2023-04-25T03:53:34.033Z,8.50
2023-04-25T03:56:27.167Z,8.57
2023-04-25T03:59:02.128Z,8.73
2023-04-25T04:02:21.827Z,8.50
2023-04-25T04:04:50.466Z,8.90
2023-04-25T04:07:43.988Z,8.40
2023-04-25T04:10:38.347Z,8.97
2023-04-25T04:13:56.871Z,9.93
2023-04-25T04:16:24.763Z,9.17
2023-04-25T04:18:55.488Z,8.87
2023-04-25T04:21:22.810Z,9.93
2023-04-25T04:28:33.933Z,11.03
2023-04-25T04:31:06.896Z,13.90
2023-04-25T04:33:34.358Z,9.70
2023-04-25T04:36:05.066Z,9.67
2023-04-25T04:38:33.085Z,14.10
2023-04-25T04:53:42.867Z,10.30
2023-04-25T04:56:19.370Z,17.47
2023-04-25T04:59:34.584Z,11.80
2023-04-25T05:15:19.663Z,9.50
2023-04-25T05:18:06.074Z,9.37
2023-04-25T05:20:48.166Z,9.40
2023-04-25T05:23:35.844Z,9.47
2023-04-25T05:30:07.952Z,9.53
2023-04-25T05:33:36.936Z,13.17
2023-04-25T05:36:05.407Z,9.40
2023-04-25T05:47:32.880Z,9.23
2023-04-25T05:51:08.219Z,8.73
2023-04-25T05:58:36.592Z,8.17
2023-04-25T06:01:04.913Z,6.93
2023-04-25T06:03:32.720Z,7.63
2023-04-25T06:06:00.459Z,6.43
2023-04-25T06:08:27.816Z,7.13
2023-04-25T06:10:55.283Z,6.70
2023-04-25T06:13:24.130Z,6.57
2023-04-25T06:15:51.774Z,10.30
2023-04-25T06:18:20.918Z,6.00
2023-04-25T06:20:48.392Z,7.03
2023-04-25T06:23:18.062Z,8.23
2023-04-25T06:25:54.714Z,9.27
2023-04-25T06:28:23.129Z,7.67
2023-04-25T06:30:50.948Z,9.37
2023-04-25T06:33:21.429Z,6.87
2023-04-25T06:38:33.713Z,10.70
2023-04-25T06:49:52.125Z,6.50
2023-04-25T06:52:20.907Z,6.57
2023-04-25T06:54:49.394Z,6.47
2023-04-25T07:19:46.438Z,5.77
2023-04-25T07:22:14.348Z,4.67
2023-04-25T07:29:04.813Z,5.20
2023-04-25T07:31:32.379Z,5.10
2023-04-25T07:34:01.997Z,5.73
2023-04-25T07:36:29.759Z,4.43
2023-04-25T07:54:19.296Z,4.67
2023-04-25T07:56:53.895Z,8.10
2023-04-25T07:59:27.569Z,4.30
2023-04-25T08:01:58.306Z,3.90
2023-04-25T08:04:26.869Z,3.90
2023-04-25T08:06:59.342Z,5.67
2023-04-25T08:09:34.804Z,3.90
2023-04-25T08:12:05.060Z,5.30
2023-04-25T08:14:37.008Z,4.40
2023-04-25T08:17:06.176Z,4.10
2023-04-25T08:19:35.965Z,4.13
2023-04-25T08:22:04.030Z,3.70
2023-04-25T08:24:45.105Z,3.73
2023-04-25T08:27:13.323Z,3.87
2023-04-25T08:29:43.051Z,3.53
2023-04-25T08:32:10.929Z,4.83
2023-04-25T08:34:44.791Z,3.60
2023-04-25T08:37:12.138Z,3.90
2023-04-25T08:39:53.367Z,3.87
2023-04-25T08:42:22.960Z,4.37
2023-04-25T08:44:51.580Z,4.60
2023-04-25T08:47:23.296Z,4.27
2023-04-25T08:49:56.030Z,4.07
2023-04-25T08:52:25.499Z,3.10
2023-04-25T08:54:55.240Z,4.40
2023-04-25T08:57:23.474Z,3.70
2023-04-25T08:59:53.893Z,4.87
2023-04-25T09:02:23.185Z,4.07
2023-04-25T09:04:55.464Z,6.47
2023-04-25T09:07:22.800Z,3.97
2023-04-25T09:09:51.227Z,5.10
2023-04-25T09:12:21.745Z,4.73
2023-04-25T09:15:06.406Z,5.23
2023-04-25T09:18:01.041Z,5.50
2023-04-25T09:20:59.716Z,5.67
2023-04-25T09:23:29.292Z,8.40
2023-04-25T09:25:56.955Z,4.40
2023-04-25T09:28:28.425Z,5.30
2023-04-25T09:31:01.490Z,5.40
2023-04-25T09:33:38.541Z,4.77
2023-04-25T09:36:09.558Z,4.30
2023-04-25T09:39:17.144Z,4.83
2023-04-25T09:41:55.054Z,5.00
2023-04-25T09:44:25.894Z,4.43
2023-04-25T09:46:55.135Z,4.70
2023-04-25T09:49:27.151Z,5.70
2023-04-25T09:52:02.928Z,5.50
2023-04-25T09:54:48.485Z,5.10
2023-04-25T09:57:25.295Z,4.43
2023-04-25T09:59:55.774Z,4.93
2023-04-25T10:02:27.498Z,4.87
2023-04-25T10:05:04.396Z,4.63
2023-04-25T10:07:39.708Z,3.90
2023-04-25T10:10:13.968Z,4.43
2023-04-25T10:12:45.170Z,4.73
2023-04-25T10:15:15.773Z,5.13
2023-04-25T10:17:43.567Z,4.30
2023-04-25T10:20:12.202Z,4.50
2023-04-25T10:22:45.281Z,4.70
2023-04-25T10:25:13.788Z,4.93
2023-04-25T10:27:41.326Z,4.63
2023-04-25T10:30:15.193Z,5.03
2023-04-25T10:32:46.543Z,5.20
2023-04-25T10:35:19.866Z,4.40
2023-04-25T10:38:14.839Z,4.40
2023-04-25T10:40:42.423Z,4.23
2023-04-25T10:43:32.285Z,4.60
2023-04-25T10:46:04.172Z,5.10
2023-04-25T10:48:32.377Z,4.47
2023-04-25T10:51:16.604Z,4.70
2023-04-25T10:53:49.354Z,7.03
2023-04-25T10:56:25.838Z,5.20
2023-04-25T10:59:03.734Z,4.70
2023-04-25T11:01:41.675Z,5.00
2023-04-25T11:04:31.624Z,5.03
2023-04-25T11:07:44.399Z,4.50
2023-04-25T11:10:15.460Z,4.73
2023-04-25T11:12:48.057Z,4.87
2023-04-25T11:15:16.112Z,4.00
2023-04-25T11:17:55.762Z,6.47
2023-04-25T11:30:18.059Z,6.27
2023-04-25T11:32:48.570Z,6.63
2023-04-25T11:35:17.592Z,4.70
2023-04-25T11:37:45.824Z,6.10
2023-04-25T11:40:13.563Z,4.87
2023-04-25T11:42:47.009Z,6.60
2023-04-25T11:45:15.606Z,4.57
2023-04-25T11:47:43.305Z,4.90
2023-04-25T11:50:11.306Z,4.80
2023-04-25T11:52:40.914Z,5.50
2023-04-25T11:55:15.343Z,4.43
2023-04-25T11:57:44.680Z,4.53
2023-04-25T12:00:17.633Z,6.60
2023-04-25T12:03:13.851Z,4.00
2023-04-25T12:05:41.709Z,4.27
2023-04-25T12:11:34.201Z,5.03
2023-04-25T12:14:36.167Z,4.70
2023-04-25T12:17:30.968Z,4.57
2023-04-25T12:20:00.219Z,3.53
2023-04-25T12:22:27.904Z,5.40
2023-04-25T12:24:55.872Z,6.07
2023-04-25T12:27:27.124Z,3.63
2023-04-25T12:29:57.488Z,4.67
2023-04-25T12:32:25.484Z,3.73
2023-04-25T12:34:53.445Z,4.90
2023-04-25T12:37:21.217Z,4.10
2023-04-25T12:39:48.589Z,5.20
2023-04-25T12:42:17.750Z,4.73
2023-04-25T12:44:45.181Z,7.83
2023-04-25T12:47:12.571Z,3.63
2023-04-25T12:50:42.212Z,6.03
2023-04-25T12:53:09.587Z,4.73
2023-04-25T12:55:42.274Z,5.77
2023-04-25T12:58:09.655Z,5.90
2023-04-25T13:00:40.717Z,5.07
2023-04-25T13:03:10.871Z,6.90
2023-04-25T13:05:42.467Z,4.33
2023-04-25T13:08:11.633Z,8.70
2023-04-25T13:10:46.087Z,3.80
2023-04-25T13:13:41.955Z,4.77
2023-04-25T13:16:09.914Z,5.63
2023-04-25T13:18:39.007Z,5.10
2023-04-25T13:21:16.754Z,7.20
2023-04-25T13:23:46.763Z,8.03
2023-04-25T13:26:14.367Z,4.93
2023-04-25T13:28:56.673Z,4.80
2023-04-25T13:31:24.172Z,4.90
2023-04-25T13:34:17.695Z,6.03
2023-04-25T13:36:46.722Z,7.07
2023-04-25T13:39:14.405Z,7.93
2023-04-25T13:41:42.167Z,5.70
2023-04-25T13:44:11.405Z,5.23
2023-04-25T13:46:46.331Z,4.80
2023-04-25T13:49:15.449Z,6.93
2023-04-25T13:51:43.516Z,7.83
2023-04-25T13:54:11.573Z,4.40
2023-04-25T13:56:39.569Z,4.67
2023-04-25T13:59:07.411Z,6.70
2023-04-25T14:01:36.533Z,5.03
2023-04-25T14:04:07.036Z,4.30
2023-04-25T14:07:45.083Z,5.63
2023-04-25T14:10:20.842Z,5.97
2023-04-25T14:12:48.387Z,4.03
2023-04-25T14:15:16.125Z,7.13
2023-04-25T14:17:44.192Z,5.17
2023-04-25T14:20:12.461Z,4.40
2023-04-25T14:22:43.801Z,4.23
2023-04-25T14:25:11.187Z,6.37
2023-04-25T14:27:38.633Z,5.37
2023-04-25T14:30:07.512Z,5.20
2023-04-25T14:32:35.314Z,3.90
2023-04-25T14:35:03.127Z,3.50
2023-04-25T14:37:31.226Z,8.17
2023-04-25T14:39:58.621Z,4.80
2023-04-25T14:42:26.656Z,6.87
2023-04-25T14:44:56.230Z,3.33
2023-04-25T14:47:24.972Z,4.00
2023-04-25T14:49:55.083Z,4.93
2023-04-25T14:52:22.569Z,4.30
2023-04-25T14:55:01.456Z,4.03
2023-04-25T15:10:16.103Z,7.90
2023-04-25T15:12:47.838Z,3.90
2023-04-25T15:15:22.808Z,4.60
2023-04-25T15:22:01.459Z,5.07
2023-04-25T15:30:40.279Z,7.50
2023-04-25T15:33:08.386Z,5.70
2023-04-25T15:35:35.984Z,5.17
2023-04-25T15:38:04.225Z,4.77
2023-04-25T15:43:38.880Z,4.73
2023-04-25T15:46:10.134Z,7.17
2023-04-25T15:48:38.358Z,4.80
2023-04-25T15:51:05.957Z,3.97
2023-04-25T16:01:59.655Z,3.80
2023-04-25T16:11:35.006Z,3.30
2023-04-25T16:14:02.477Z,4.90
2023-04-25T16:16:30.338Z,5.80
2023-04-25T16:18:57.733Z,3.37
2023-04-25T16:25:27.121Z,3.93
2023-04-25T16:27:55.555Z,5.30
2023-04-25T16:30:23.003Z,5.90
2023-04-25T16:32:50.778Z,3.50
2023-04-25T16:40:22.284Z,5.97
2023-04-25T16:42:49.823Z,4.60
2023-04-25T16:45:20.009Z,3.27
2023-04-25T16:47:47.501Z,5.10
2023-04-25T16:50:15.519Z,12.23
2023-04-25T16:52:44.798Z,4.77
2023-04-25T16:55:12.572Z,5.07
2023-04-25T16:57:41.229Z,4.90
2023-04-25T17:00:13.093Z,6.97
2023-04-25T17:02:41.571Z,5.17
2023-04-25T17:05:09.242Z,6.77
2023-04-25T17:08:01.834Z,4.53
2023-04-25T17:10:30.690Z,6.47
2023-04-25T17:12:58.153Z,4.73
2023-04-25T17:15:25.517Z,4.37
2023-04-25T17:17:52.956Z,4.30
2023-04-25T17:20:20.621Z,3.13
2023-04-25T17:23:14.874Z,3.83
2023-04-25T17:25:42.601Z,4.07
2023-04-25T17:28:30.981Z,5.83
2023-04-25T17:30:58.510Z,3.70
2023-04-25T17:33:27.083Z,4.23
2023-04-25T17:35:55.474Z,4.23
2023-04-25T17:41:30.392Z,3.60
2023-04-25T18:19:15.995Z,3.47
2023-04-25T18:24:55.311Z,5.30
2023-04-25T18:27:39.983Z,5.00
2023-04-25T18:30:10.535Z,5.33
2023-04-25T18:33:03.636Z,3.10
2023-04-25T18:35:59.551Z,4.73
2023-04-25T18:41:52.174Z,6.03
2023-04-25T18:44:22.962Z,5.03
2023-04-25T18:46:50.553Z,3.93
2023-04-25T18:49:18.084Z,4.20
2023-04-25T18:51:46.271Z,4.07
2023-04-25T18:54:13.837Z,4.40
2023-04-25T18:56:41.314Z,5.50
2023-04-25T18:59:33.618Z,8.13
2023-04-25T19:02:05.330Z,3.87
2023-04-25T19:04:33.351Z,3.90
2023-04-25T19:07:01.206Z,4.33
2023-04-25T19:09:28.665Z,3.33
2023-04-25T19:11:57.344Z,2.83
2023-04-25T19:14:25.857Z,3.23
2023-04-25T19:16:53.915Z,3.47
2023-04-25T19:19:21.778Z,3.57
2023-04-25T19:21:50.692Z,4.00
2023-04-25T19:24:18.281Z,5.90
2023-04-25T19:26:47.930Z,4.73
2023-04-25T19:29:17.199Z,3.90
2023-04-25T19:31:45.244Z,7.83
2023-04-25T19:34:13.831Z,3.87
2023-04-25T19:36:42.593Z,3.23
2023-04-25T19:39:10.992Z,3.77
2023-04-25T19:41:39.145Z,3.30
2023-04-25T19:44:08.682Z,4.73
2023-04-25T19:46:38.055Z,4.80
2023-04-25T19:49:09.100Z,3.30
2023-04-25T19:51:37.248Z,3.90
2023-04-25T20:47:37.115Z,4.90
2023-04-25T20:50:06.726Z,4.70
2023-04-25T20:52:35.479Z,4.10
2023-04-25T20:55:03.116Z,4.23
2023-04-25T20:57:31.955Z,4.83
2023-04-25T20:59:59.562Z,4.40
2023-04-25T21:02:27.441Z,4.73
2023-04-25T21:04:55.148Z,4.03
2023-04-25T21:07:22.906Z,4.60
2023-04-25T21:09:51.822Z,4.30
2023-04-25T21:12:20.002Z,4.13
2023-04-25T21:14:47.933Z,4.70
2023-04-25T21:17:15.261Z,4.23
2023-04-25T21:19:42.855Z,4.23
2023-04-25T21:22:10.210Z,4.23
2023-04-25T21:24:37.523Z,5.03
2023-04-25T21:27:05.088Z,4.40
2023-04-25T21:29:32.582Z,4.33
2023-04-25T21:31:59.969Z,9.50
2023-04-25T21:34:29.267Z,9.73
2023-04-25T21:36:56.612Z,12.57
2023-04-25T21:39:25.487Z,4.43
2023-04-25T21:41:53.933Z,6.87
2023-04-25T21:44:21.251Z,4.33
2023-04-25T21:46:48.591Z,4.50
2023-04-25T21:49:16.449Z,3.60
2023-04-25T21:51:44.440Z,4.47
2023-04-25T21:54:36.835Z,4.50
2023-04-25T21:57:04.605Z,3.43
2023-04-25T21:59:32.850Z,4.87
2023-04-25T22:02:00.173Z,4.93
2023-04-25T22:04:27.862Z,4.50
2023-04-25T22:06:56.862Z,3.83
2023-04-25T22:09:24.442Z,6.30
2023-04-25T22:11:53.206Z,3.57
2023-04-25T22:14:24.955Z,3.83
2023-04-25T22:16:54.312Z,4.43
2023-04-25T22:19:21.682Z,5.17
2023-04-25T22:21:51.999Z,5.40
2023-04-25T22:24:19.304Z,4.03
2023-04-25T22:26:46.962Z,5.57
2023-04-25T22:29:14.230Z,6.77
2023-04-25T22:31:41.654Z,4.07
2023-04-25T22:34:09.081Z,4.00
2023-04-25T22:36:36.375Z,4.27
2023-04-25T22:39:28.950Z,5.13
2023-04-25T22:41:56.200Z,4.37
2023-04-25T22:47:55.453Z,4.17
2023-04-25T22:50:22.946Z,4.70
2023-04-25T22:52:50.516Z,4.97
2023-04-25T22:56:09.182Z,5.23
2023-04-25T22:58:39.715Z,4.17
2023-04-25T23:01:08.323Z,4.10
2023-04-25T23:03:35.906Z,3.97
2023-04-25T23:06:03.803Z,4.10
2023-04-25T23:08:33.159Z,5.40
2023-04-25T23:11:00.664Z,4.27
2023-04-25T23:13:29.054Z,3.97
2023-04-25T23:17:13.664Z,5.27
2023-04-25T23:19:40.995Z,4.63
2023-04-25T23:22:09.026Z,4.57
2023-04-25T23:24:39.016Z,4.03
2023-04-25T23:27:06.717Z,4.67
2023-04-25T23:29:59.913Z,5.37
2023-04-25T23:32:27.393Z,4.30
2023-04-25T23:34:55.086Z,4.87
2023-04-25T23:37:22.395Z,6.90
2023-04-25T23:39:53.384Z,4.20
2023-04-25T23:42:21.182Z,5.73
2023-04-25T23:44:48.811Z,3.83
2023-04-25T23:47:17.610Z,5.53
2023-04-25T23:49:45.836Z,4.50
2023-04-25T23:52:39.209Z,6.33
2023-04-25T23:55:07.252Z,4.00
2023-04-25T23:57:36.232Z,5.70
